KDBN/DBN METAR and TAF weather

Enter ICAO airport designator
Station Type Date Time Source
KDBN METAR 2019/10/21 23:15 UTC NOAA

KDBN 212315Z AUTO 00000KT 10SM SCT080 SCT090 23/17 A2996 RMK AO2


Station Type Date Time Source
KDBN Decoded METAR 2019/10/21 23:15 UTC NOAA

Dublin, W H 'Bud' Barron Airport, GA, United States (KDBN) 32-33-52N 082-59-06W
Oct 21, 2019 - 07:15 PM EDT / 2019.10.21 2315 UTC
Wind: Calm:0
Visibility: 10 mile(s):0
Sky conditions: partly cloudy
Temperature: 73 F (23 C)
Dew Point: 62 F (17 C)
Relative Humidity: 68%
Pressure (altimeter): 29.96 in. Hg (1014 hPa)
ob: KDBN 212315Z AUTO 00000KT 10SM SCT080 SCT090 23/17 A2996 RMK AO2
cycle: 23

Station Type Date Time Source
KDBN TAF UTC NOAA

Error!

Example: see airport list